Flight Track Log - Related Links

Times and Time Zones

All times are in EDT time to prevent confusion due to time zone crossing. See the RLI811 flight status page for this flight to view local times or setup timezone preferences in your user account.

Time Position Orientation Groundspeed Altitude Reporting Facility
EDT Latitude Longitude Course Direction KTS MPH feet Rate Location/Type
Thu 12:58:33 PM 41.9125 -72.7078 206° Southwest 122 140 1,600  Level Boston Center
Thu 12:59:58 PM 41.8644 -72.7106 182° South 125 144 3,400 1,200 Climbing Boston Center
Thu 01:00:53 PM 41.8353 -72.7103 180° South 120 138 4,400 1,096 Climbing Boston Center
Thu 01:01:53 PM 41.7997 -72.7103 180° South 126 145 5,500 496 Climbing Boston Center
Thu 01:02:54 PM 41.7622 -72.7350 206° Southwest 179 206 5,400 -165 Descending Boston Center
Thu 01:03:42 PM 41.7414 -72.7822 239° Southwest 184 212 5,200 -385 Descending Boston Center
Thu 01:04:43 PM 41.7161 -72.8433 241° Southwest 184 212 4,700 -393 Descending Boston Center
Thu 01:05:44 PM 41.6847 -72.9014 234° Southwest 187 215 4,400 -295 Descending Boston Center
Thu 01:08:00 PM 41.6560 -72.9552 234° Southwest  Level Estimated
Thu 01:15:00 PM 41.5045 -73.2369 234° Southwest  Level Estimated
Thu 01:16:00 PM 41.4828 -73.2770 234° Southwest  Level Estimated
Thu 01:17:00 PM 41.4611 -73.3172 234° Southwest  Level Estimated
Thu 01:18:00 PM 41.4394 -73.3572 234° Southwest  Level Estimated
Thu 01:19:00 PM 41.4177 -73.3973 234° Southwest  Level Estimated
Thu 01:20:00 PM 41.3959 -73.4373 234° Southwest  Level Estimated
Thu 01:21:00 PM 41.3742 -73.4773 234° Southwest  Level Estimated
Thu 01:22:00 PM 41.3715 -73.4822 234° Southwest  Level Estimated
Thu 01:23:00 PM 41.3715 -73.4822 236° Southwest  Level Estimated
Thu 01:24:00 PM 41.3715 -73.4822 236° Southwest  Level Estimated
Thu 01:25:00 PM 41.3715 -73.4822 236° Southwest  Level Estimated
Thu 01:26:00 PM 41.3715 -73.4822 236° Southwest  Level Estimated
Thu 01:27:00 PM 41.3715 -73.4822 236° Southwest  Level Estimated
Thu 01:28:00 PM 41.3715 -73.4822 236° Southwest  Level Estimated
Thu 01:29:00 PM 41.3715 -73.4822 236° Southwest  Level Estimated
Thu 01:30:00 PM 41.3715 -73.4822 236° Southwest  Level Estimated
Thu 01:31:00 PM 41.3715 -73.4822 236° Southwest  Level Estimated
Thu 01:32:00 PM 41.3715 -73.4822 236° Southwest  Level Estimated
Thu 01:33:00 PM 41.3715 -73.4822 236° Southwest  Level Estimated
Thu 01:34:00 PM 41.3715 -73.4822 236° Southwest  Level Estimated
Thu 01:35:00 PM 41.3715 -73.4822 236° Southwest  Level Estimated

Login

Don't have an account? Register now (free) for customized features, flight alerts, and more!